Tobyhanna, Pennsylvania
Current Conditions -  °F | °C
As of 5:38 AM on Wednesday 22 Oct 2014 (Local Time) from KMPO Reporting Station
Light Rain Light Rain  
Wind Chill: 45°   Ceiling: 4700
Heat Index: 49°   Visibility: 6mi
Dew Point: 46°   Wind: 10mph
Humidity: 90%   Direction: 10°N
Pressure: 29.92"   Gusts: NA
Location:  41.18°N, 75.42°W
Report Text: KMPO 220938Z AUTO 01009KT 6SM -RA BR SCT006 SCT010 OVC047 09/08 A2992 RMK AO2 RAB00 T00940078 TSNO PNO $
Loading
Personal Weather Stations






























Interactive Weather Map
Tropical Storm Tracking
New forecast layout! Learn more

10-Day Weather Forecast

Advertisements
Track Severe Weather on mobile